Holt, Missouri
Current Conditions -  °F | °C
As of 4:15 PM on Monday 24 Nov 2014 (Local Time) from KGPH Reporting Station
Overcast Overcast  
Wind Chill: 30°   Ceiling: 4100
Heat Index: 37°   Visibility: 10mi
Dew Point: 27°   Wind: 10mph
Humidity: 65%   Direction: 300°WNW
Pressure: 29.87"   Gusts: NA
Location:  39.45°N, 94.34°W
Report Text: KGPH 242215Z AUTO 30009KT 10SM OVC041 03/M03 A2987 RMK AO2
Loading
Personal Weather Stations






























Interactive Weather Map New forecast layout! Learn more

10-Day Weather Forecast

Advertisements
Track Severe Weather on mobile